This is the latest recevied telemetry packets stored in our database for station/object HS9BZG. If no packets are shown the sender has not sent any telemetry packets the latest 1 day(s).
Telemetry packets is used to share measurements like repeteater parameters, battery voltage, radiation readings (or any other measurements).
| Time | TEMP* | HUM* | BAR* | BAT* | Value5* |
|---|---|---|---|---|---|
| 1777921498 | 31.58 °C | 59.6 %RH | 991.7 hPa | 4.16 V | 0 |
| 1777920898 | 30.99 °C | 59.9 %RH | 991.9 hPa | 4.09 V | 0 |
| 1777920298 | 31.29 °C | 59.4 %RH | 991.9 hPa | 4.11 V | 0 |
| 1777919698 | 31.46 °C | 59.1 %RH | 992.1 hPa | 4.16 V | 0 |
| 1777919098 | 31.49 °C | 58.9 %RH | 992.4 hPa | 4.17 V | 0 |
| 1777918498 | 31.51 °C | 58.6 %RH | 992.6 hPa | 4.16 V | 0 |
| 1777917898 | 31.53 °C | 58.3 %RH | 992.8 hPa | 4.16 V | 0 |
| 1777917298 | 31.68 °C | 57.9 %RH | 993.1 hPa | 4.16 V | 0 |
| 1777916697 | 31.84 °C | 57.5 %RH | 993.2 hPa | 4.16 V | 0 |
| 1777916098 | 32.04 °C | 57.1 %RH | 993.4 hPa | 4.16 V | 0 |
| 1777915498 | 32.36 °C | 56.4 %RH | 993.3 hPa | 4.16 V | 0 |
| 1777914897 | 32.81 °C | 55.7 %RH | 993.3 hPa | 4.16 V | 0 |
| 1777914297 | 33.34 °C | 55 %RH | 993.3 hPa | 4.16 V | 0 |
| 1777913697 | 33.8 °C | 54.5 %RH | 993.1 hPa | 4.16 V | 0 |
| 1777913097 | 34 °C | 54.4 %RH | 992.8 hPa | 4.16 V | 0 |
| 1777912497 | 33.94 °C | 54.5 %RH | 992.5 hPa | 4.16 V | 0 |
| 1777911897 | 33.95 °C | 54.5 %RH | 992.2 hPa | 4.16 V | 0 |
| 1777911297 | 33.97 °C | 54.5 %RH | 992.2 hPa | 4.16 V | 0 |
| 1777910697 | 33.85 °C | 54.7 %RH | 992.4 hPa | 4.16 V | 0 |
| 1777910097 | 33.23 °C | 55.2 %RH | 992.5 hPa | 4.16 V | 0 |
| 1777909497 | 33.38 °C | 54.8 %RH | 992.6 hPa | 4.11 V | 0 |
| 1777908897 | 33.75 °C | 54.4 %RH | 992.7 hPa | 4.17 V | 0 |
| 1777908297 | 33.77 °C | 54.4 %RH | 992.6 hPa | 4.17 V | 0 |
| 1777907736 | 33.73 °C | 54.4 %RH | 992.6 hPa | 4.16 V | 0 |
| 1777907097 | 33.68 °C | 54.4 %RH | 992.4 hPa | 4.18 V | 0 |
*Used Equation Coefficients:
TEMP: 0, 0.01, 0
HUM: 0, 0.1, 0
BAR: 0, 0.1, 800
BAT: 0, 0.01, 0
Value5: 0, 1, 0
- The parameter names for the analog channels will be Value1, Value2, Value3 (up to Value5) if station has not sent a PARAM-packet that specifies the parameter names for each analog channel.
- Each analog value is a decimal number between 000 and 255 (according to APRS specifications). The receiver use the telemetry equation coefficientsto to restore the original sensor values. If no EQNS-packet with equation coefficients is sent we will show the values as is (this corresponds to the equation coefficients a=0, b=1 and c=0).
The sent equation coefficients is used in the equation: a * value2 + b * value + c. - The units for the analog values will not be shown if station has not sent a UNIT-packet specifying what unit's to use.
- The parameter names for the digital bits will be Bit1, Bit2, Bit3 (up to Bit8) if station has not sent a PARAM-packet that specifies the parameter names for each digital bit.
- All bit labels will be named "On" if station has not sent a UNIT-packet that specifies the label of each bit.
- A bit is considered to be On when the bit is 1 if station has not sent a BITS-packet that specifies another "Bit sense" (a BITS-packet specify the state of the bits that match the BIT labels)